Aérodrome :







RETROUVEZ-NOUS SUR...

 
LOGIN :

S'inscrire | Disclaimer

   EN    FR    IT 

 









Légende :    VFR   VFR Marginal   IFR   IFR Intensif   IFR Très Intensif
Visi : 
Plafond : 
>= 8 km
>= 3000ft
5 à 8 km
1000 à 3000 ft
1500m à 5 km
500 à 1000 ft
800 à 1500m
200 à 500 ft
< 800m
< 200 ft
Symboles :   Orages  Brouillard  Fortes neiges  Fortes précipitations  Vent > 20 kt






- Altitude de l'aérodrome : 474 ft


KPTD - Potsdam Municipal-Damon field

DERNIER METAR :
  • 261535Z AUTO 04007KT 10SM SCT038 OVC044 M00/M05 A3000 RMK AO2

METARs EXPIRÉS :
  • 261515Z AUTO 04010KT 10SM BKN036 OVC042 M01/M06 A3000 RMK AO2
  • 261455Z AUTO 05012KT 10SM SCT031 OVC042 M01/M06 A3000 RMK AO2
  • 261435Z AUTO 05010G16KT 10SM OVC031 M01/M05 A3000 RMK AO2
  • 261350Z AUTO 04007G15KT 10SM OVC034 M01/M05 A3002 RMK AO2
  • 261335Z AUTO 04012KT 10SM OVC034 M01/M05 A3002 RMK AO2
  • 261315Z AUTO 05009KT 10SM OVC035 M01/M05 A3002 RMK AO2

TAF N/A



MET'MAP, la Météo Aéronautique d'un coup d'oeil ! - Copyright ORBIFLY Décembre 2007 - Disclaimer

ORBIFLY MET'MAP TEAM :

Programmation & Développement : Alexandra Zaïnal
Sur une idée originale de : Baudouin d'Aumeries
Assistance à la programmation : Marc-Olivier Méhu
Soutien technique & logistique : Manuel Goepfert

Contact : metmap@orbifly.com




SOURCES & CREDITS :

   NOAA